sensor_id;sensor_type;location;lat;lon;timestamp;P1;durP1;ratioP1;P2;durP2;ratioP2
74510;SDS011;62991;50.040;18.400;2023-05-07T00:01:16;15.25;;;5.45;;
74510;SDS011;62991;50.040;18.400;2023-05-07T00:04:16;14.63;;;7.90;;
74510;SDS011;62991;50.040;18.400;2023-05-07T00:07:17;13.32;;;6.68;;
74510;SDS011;62991;50.040;18.400;2023-05-07T00:10:18;15.32;;;7.75;;
74510;SDS011;62991;50.040;18.400;2023-05-07T00:13:19;19.95;;;8.32;;
74510;SDS011;62991;50.040;18.400;2023-05-07T00:16:20;17.02;;;7.18;;
74510;SDS011;62991;50.040;18.400;2023-05-07T00:19:20;17.23;;;7.75;;
74510;SDS011;62991;50.040;18.400;2023-05-07T00:22:21;13.45;;;6.45;;
74510;SDS011;62991;50.040;18.400;2023-05-07T00:25:22;14.13;;;7.05;;
74510;SDS011;62991;50.040;18.400;2023-05-07T00:28:22;15.43;;;7.30;;
74510;SDS011;62991;50.040;18.400;2023-05-07T00:31:23;14.68;;;7.20;;
74510;SDS011;62991;50.040;18.400;2023-05-07T00:34:24;19.27;;;8.07;;
74510;SDS011;62991;50.040;18.400;2023-05-07T00:37:24;15.35;;;7.50;;
74510;SDS011;62991;50.040;18.400;2023-05-07T00:40:25;15.10;;;6.57;;
74510;SDS011;62991;50.040;18.400;2023-05-07T00:43:26;15.43;;;8.13;;
74510;SDS011;62991;50.040;18.400;2023-05-07T00:46:27;18.65;;;7.80;;
74510;SDS011;62991;50.040;18.400;2023-05-07T00:49:36;16.63;;;7.05;;
74510;SDS011;62991;50.040;18.400;2023-05-07T00:55:47;14.55;;;6.50;;
74510;SDS011;62991;50.040;18.400;2023-05-07T00:58:48;14.38;;;6.40;;
74510;SDS011;62991;50.040;18.400;2023-05-07T01:01:49;15.75;;;6.57;;
74510;SDS011;62991;50.040;18.400;2023-05-07T01:04:50;11.23;;;5.28;;
74510;SDS011;62991;50.040;18.400;2023-05-07T01:07:50;15.60;;;7.00;;
74510;SDS011;62991;50.040;18.400;2023-05-07T01:10:53;17.95;;;7.68;;
74510;SDS011;62991;50.040;18.400;2023-05-07T01:13:56;17.65;;;7.80;;
74510;SDS011;62991;50.040;18.400;2023-05-07T01:16:59;15.95;;;6.80;;
74510;SDS011;62991;50.040;18.400;2023-05-07T01:20:00;18.13;;;8.18;;
74510;SDS011;62991;50.040;18.400;2023-05-07T01:23:00;22.42;;;8.00;;
74510;SDS011;62991;50.040;18.400;2023-05-07T01:26:03;15.07;;;7.45;;
74510;SDS011;62991;50.040;18.400;2023-05-07T01:29:03;17.02;;;7.68;;
74510;SDS011;62991;50.040;18.400;2023-05-07T01:32:04;15.73;;;6.28;;
74510;SDS011;62991;50.040;18.400;2023-05-07T01:35:06;19.67;;;6.78;;
74510;SDS011;62991;50.040;18.400;2023-05-07T01:38:10;16.88;;;6.88;;
74510;SDS011;62991;50.040;18.400;2023-05-07T01:41:11;19.65;;;8.15;;
74510;SDS011;62991;50.040;18.400;2023-05-07T01:44:13;19.60;;;7.80;;
74510;SDS011;62991;50.040;18.400;2023-05-07T01:47:14;19.05;;;7.25;;
74510;SDS011;62991;50.040;18.400;2023-05-07T01:50:17;20.73;;;8.43;;
74510;SDS011;62991;50.040;18.400;2023-05-07T01:53:19;21.52;;;8.30;;
74510;SDS011;62991;50.040;18.400;2023-05-07T01:56:20;17.17;;;7.20;;
74510;SDS011;62991;50.040;18.400;2023-05-07T01:59:21;18.48;;;8.48;;
74510;SDS011;62991;50.040;18.400;2023-05-07T02:02:21;19.67;;;8.43;;
74510;SDS011;62991;50.040;18.400;2023-05-07T02:05:22;16.27;;;8.02;;
74510;SDS011;62991;50.040;18.400;2023-05-07T02:08:23;19.63;;;7.75;;
74510;SDS011;62991;50.040;18.400;2023-05-07T02:11:24;17.33;;;7.78;;
74510;SDS011;62991;50.040;18.400;2023-05-07T02:14:25;16.10;;;7.38;;
74510;SDS011;62991;50.040;18.400;2023-05-07T02:17:26;23.50;;;9.20;;
74510;SDS011;62991;50.040;18.400;2023-05-07T02:20:26;24.67;;;8.65;;
74510;SDS011;62991;50.040;18.400;2023-05-07T02:23:27;24.27;;;8.65;;
74510;SDS011;62991;50.040;18.400;2023-05-07T02:26:28;26.05;;;9.75;;
74510;SDS011;62991;50.040;18.400;2023-05-07T02:29:29;20.35;;;8.98;;
74510;SDS011;62991;50.040;18.400;2023-05-07T02:32:29;23.58;;;7.13;;
74510;SDS011;62991;50.040;18.400;2023-05-07T02:35:30;15.80;;;8.13;;
74510;SDS011;62991;50.040;18.400;2023-05-07T02:38:31;18.88;;;8.68;;
74510;SDS011;62991;50.040;18.400;2023-05-07T02:41:31;17.73;;;8.43;;
74510;SDS011;62991;50.040;18.400;2023-05-07T02:44:32;17.70;;;7.13;;
74510;SDS011;62991;50.040;18.400;2023-05-07T02:47:33;21.65;;;7.75;;
74510;SDS011;62991;50.040;18.400;2023-05-07T02:50:34;21.42;;;8.73;;
74510;SDS011;62991;50.040;18.400;2023-05-07T02:53:34;14.85;;;7.95;;
74510;SDS011;62991;50.040;18.400;2023-05-07T02:56:35;21.60;;;10.18;;
74510;SDS011;62991;50.040;18.400;2023-05-07T02:59:35;23.20;;;10.95;;
74510;SDS011;62991;50.040;18.400;2023-05-07T03:02:36;18.48;;;8.05;;
74510;SDS011;62991;50.040;18.400;2023-05-07T03:05:37;17.48;;;8.30;;
74510;SDS011;62991;50.040;18.400;2023-05-07T03:08:37;16.48;;;7.50;;
74510;SDS011;62991;50.040;18.400;2023-05-07T03:11:38;19.45;;;8.18;;
74510;SDS011;62991;50.040;18.400;2023-05-07T03:14:39;17.73;;;8.15;;
74510;SDS011;62991;50.040;18.400;2023-05-07T03:17:40;15.77;;;7.50;;
74510;SDS011;62991;50.040;18.400;2023-05-07T03:20:40;17.95;;;7.90;;
74510;SDS011;62991;50.040;18.400;2023-05-07T03:23:41;16.08;;;7.20;;
74510;SDS011;62991;50.040;18.400;2023-05-07T03:26:41;15.38;;;6.68;;
74510;SDS011;62991;50.040;18.400;2023-05-07T03:29:42;19.50;;;8.60;;
74510;SDS011;62991;50.040;18.400;2023-05-07T03:32:43;15.07;;;6.97;;
74510;SDS011;62991;50.040;18.400;2023-05-07T03:35:43;17.38;;;7.40;;
74510;SDS011;62991;50.040;18.400;2023-05-07T03:38:44;16.90;;;7.75;;
74510;SDS011;62991;50.040;18.400;2023-05-07T03:41:45;20.10;;;7.68;;
74510;SDS011;62991;50.040;18.400;2023-05-07T03:44:45;18.27;;;6.82;;
74510;SDS011;62991;50.040;18.400;2023-05-07T03:47:46;12.75;;;5.50;;
74510;SDS011;62991;50.040;18.400;2023-05-07T03:50:47;17.00;;;6.20;;
74510;SDS011;62991;50.040;18.400;2023-05-07T03:53:47;15.85;;;6.25;;
74510;SDS011;62991;50.040;18.400;2023-05-07T03:56:48;13.05;;;5.47;;
74510;SDS011;62991;50.040;18.400;2023-05-07T03:59:49;15.05;;;6.55;;
74510;SDS011;62991;50.040;18.400;2023-05-07T04:02:49;12.98;;;6.30;;
74510;SDS011;62991;50.040;18.400;2023-05-07T04:05:50;16.88;;;6.03;;
74510;SDS011;62991;50.040;18.400;2023-05-07T04:08:51;14.38;;;5.88;;
74510;SDS011;62991;50.040;18.400;2023-05-07T04:11:51;10.52;;;5.53;;
74510;SDS011;62991;50.040;18.400;2023-05-07T04:14:52;13.35;;;5.55;;
74510;SDS011;62991;50.040;18.400;2023-05-07T04:17:52;15.07;;;6.22;;
74510;SDS011;62991;50.040;18.400;2023-05-07T04:20:53;12.57;;;5.88;;
74510;SDS011;62991;50.040;18.400;2023-05-07T04:23:55;14.25;;;5.88;;
74510;SDS011;62991;50.040;18.400;2023-05-07T04:26:56;16.67;;;5.43;;
74510;SDS011;62991;50.040;18.400;2023-05-07T04:29:58;7.68;;;4.40;;
74510;SDS011;62991;50.040;18.400;2023-05-07T04:33:00;12.52;;;5.30;;
74510;SDS011;62991;50.040;18.400;2023-05-07T04:36:02;10.68;;;3.67;;
74510;SDS011;62991;50.040;18.400;2023-05-07T04:39:03;9.93;;;4.72;;
74510;SDS011;62991;50.040;18.400;2023-05-07T04:42:04;12.70;;;5.20;;
74510;SDS011;62991;50.040;18.400;2023-05-07T04:45:08;12.13;;;5.40;;
74510;SDS011;62991;50.040;18.400;2023-05-07T04:48:10;11.07;;;5.25;;
74510;SDS011;62991;50.040;18.400;2023-05-07T04:51:10;10.10;;;4.40;;
74510;SDS011;62991;50.040;18.400;2023-05-07T04:54:11;12.23;;;4.88;;
74510;SDS011;62991;50.040;18.400;2023-05-07T04:57:12;8.35;;;4.47;;
74510;SDS011;62991;50.040;18.400;2023-05-07T05:00:13;8.27;;;4.63;;
74510;SDS011;62991;50.040;18.400;2023-05-07T05:03:14;9.85;;;4.93;;
74510;SDS011;62991;50.040;18.400;2023-05-07T05:06:15;9.10;;;4.15;;
74510;SDS011;62991;50.040;18.400;2023-05-07T05:09:15;9.20;;;4.43;;
74510;SDS011;62991;50.040;18.400;2023-05-07T05:12:16;8.57;;;4.35;;
74510;SDS011;62991;50.040;18.400;2023-05-07T05:15:17;10.02;;;4.18;;
74510;SDS011;62991;50.040;18.400;2023-05-07T05:18:18;9.80;;;4.20;;
74510;SDS011;62991;50.040;18.400;2023-05-07T05:21:18;8.13;;;3.97;;
74510;SDS011;62991;50.040;18.400;2023-05-07T05:24:19;11.02;;;4.07;;
74510;SDS011;62991;50.040;18.400;2023-05-07T05:27:20;10.90;;;3.95;;
74510;SDS011;62991;50.040;18.400;2023-05-07T05:30:20;8.50;;;3.85;;
74510;SDS011;62991;50.040;18.400;2023-05-07T05:33:21;6.60;;;3.20;;
74510;SDS011;62991;50.040;18.400;2023-05-07T05:36:22;9.38;;;3.75;;
74510;SDS011;62991;50.040;18.400;2023-05-07T05:39:22;9.65;;;3.65;;
74510;SDS011;62991;50.040;18.400;2023-05-07T05:42:23;9.25;;;3.72;;
74510;SDS011;62991;50.040;18.400;2023-05-07T05:45:24;7.40;;;3.17;;
74510;SDS011;62991;50.040;18.400;2023-05-07T05:48:25;6.47;;;3.20;;
74510;SDS011;62991;50.040;18.400;2023-05-07T05:51:25;8.73;;;3.95;;
74510;SDS011;62991;50.040;18.400;2023-05-07T05:54:26;8.43;;;3.67;;
74510;SDS011;62991;50.040;18.400;2023-05-07T05:57:27;10.27;;;4.47;;
74510;SDS011;62991;50.040;18.400;2023-05-07T06:00:28;12.63;;;5.30;;
74510;SDS011;62991;50.040;18.400;2023-05-07T06:03:29;8.32;;;3.75;;
74510;SDS011;62991;50.040;18.400;2023-05-07T06:06:29;7.88;;;3.88;;
74510;SDS011;62991;50.040;18.400;2023-05-07T06:09:31;9.35;;;4.65;;
74510;SDS011;62991;50.040;18.400;2023-05-07T06:12:31;7.38;;;3.70;;
74510;SDS011;62991;50.040;18.400;2023-05-07T06:15:32;5.32;;;2.88;;
74510;SDS011;62991;50.040;18.400;2023-05-07T06:18:33;6.30;;;2.70;;
74510;SDS011;62991;50.040;18.400;2023-05-07T06:21:36;7.85;;;2.75;;
74510;SDS011;62991;50.040;18.400;2023-05-07T06:24:36;4.25;;;1.83;;
74510;SDS011;62991;50.040;18.400;2023-05-07T06:27:37;6.70;;;2.53;;
74510;SDS011;62991;50.040;18.400;2023-05-07T06:30:39;6.10;;;2.45;;
74510;SDS011;62991;50.040;18.400;2023-05-07T06:33:40;5.43;;;2.60;;
74510;SDS011;62991;50.040;18.400;2023-05-07T06:36:41;5.90;;;2.75;;
74510;SDS011;62991;50.040;18.400;2023-05-07T06:39:42;5.55;;;2.78;;
74510;SDS011;62991;50.040;18.400;2023-05-07T06:42:42;6.40;;;2.75;;
74510;SDS011;62991;50.040;18.400;2023-05-07T06:45:43;6.72;;;3.03;;
74510;SDS011;62991;50.040;18.400;2023-05-07T06:48:44;5.53;;;2.65;;
74510;SDS011;62991;50.040;18.400;2023-05-07T06:51:44;4.53;;;2.22;;
74510;SDS011;62991;50.040;18.400;2023-05-07T06:54:45;7.57;;;2.60;;
74510;SDS011;62991;50.040;18.400;2023-05-07T06:57:46;8.60;;;2.67;;
74510;SDS011;62991;50.040;18.400;2023-05-07T07:00:46;6.70;;;2.65;;
74510;SDS011;62991;50.040;18.400;2023-05-07T07:03:47;5.85;;;2.88;;
74510;SDS011;62991;50.040;18.400;2023-05-07T07:06:48;5.90;;;2.45;;
74510;SDS011;62991;50.040;18.400;2023-05-07T07:09:49;6.07;;;2.88;;
74510;SDS011;62991;50.040;18.400;2023-05-07T07:12:50;5.00;;;2.63;;
74510;SDS011;62991;50.040;18.400;2023-05-07T07:15:52;5.85;;;3.60;;
74510;SDS011;62991;50.040;18.400;2023-05-07T07:18:53;5.40;;;3.28;;
74510;SDS011;62991;50.040;18.400;2023-05-07T07:21:54;9.40;;;3.92;;
74510;SDS011;62991;50.040;18.400;2023-05-07T07:24:54;9.10;;;4.80;;
74510;SDS011;62991;50.040;18.400;2023-05-07T07:27:55;8.73;;;4.82;;
74510;SDS011;62991;50.040;18.400;2023-05-07T07:30:56;12.15;;;5.63;;
74510;SDS011;62991;50.040;18.400;2023-05-07T07:33:56;8.88;;;4.60;;
74510;SDS011;62991;50.040;18.400;2023-05-07T07:36:57;9.40;;;3.95;;
74510;SDS011;62991;50.040;18.400;2023-05-07T07:39:58;11.63;;;4.32;;
74510;SDS011;62991;50.040;18.400;2023-05-07T07:42:58;9.38;;;4.35;;
74510;SDS011;62991;50.040;18.400;2023-05-07T07:46:01;10.85;;;4.50;;
74510;SDS011;62991;50.040;18.400;2023-05-07T07:49:02;7.63;;;3.85;;
74510;SDS011;62991;50.040;18.400;2023-05-07T07:52:02;11.50;;;4.68;;
74510;SDS011;62991;50.040;18.400;2023-05-07T07:55:03;11.75;;;5.07;;
74510;SDS011;62991;50.040;18.400;2023-05-07T07:58:05;10.82;;;4.22;;
74510;SDS011;62991;50.040;18.400;2023-05-07T08:01:05;9.25;;;4.68;;
74510;SDS011;62991;50.040;18.400;2023-05-07T08:04:06;8.57;;;4.38;;
74510;SDS011;62991;50.040;18.400;2023-05-07T08:07:07;11.07;;;4.60;;
74510;SDS011;62991;50.040;18.400;2023-05-07T08:10:07;5.55;;;2.95;;
74510;SDS011;62991;50.040;18.400;2023-05-07T08:13:09;7.68;;;3.92;;
74510;SDS011;62991;50.040;18.400;2023-05-07T08:16:09;8.30;;;3.53;;
74510;SDS011;62991;50.040;18.400;2023-05-07T08:19:10;7.72;;;4.10;;
74510;SDS011;62991;50.040;18.400;2023-05-07T08:22:10;7.15;;;3.15;;
74510;SDS011;62991;50.040;18.400;2023-05-07T08:25:11;8.25;;;3.65;;
74510;SDS011;62991;50.040;18.400;2023-05-07T08:28:12;5.50;;;2.55;;
74510;SDS011;62991;50.040;18.400;2023-05-07T08:31:13;6.22;;;2.63;;
74510;SDS011;62991;50.040;18.400;2023-05-07T08:34:13;6.20;;;2.40;;
74510;SDS011;62991;50.040;18.400;2023-05-07T08:37:14;4.95;;;2.60;;
74510;SDS011;62991;50.040;18.400;2023-05-07T08:40:15;7.47;;;3.33;;
74510;SDS011;62991;50.040;18.400;2023-05-07T08:43:15;4.05;;;2.00;;
74510;SDS011;62991;50.040;18.400;2023-05-07T08:46:21;9.07;;;4.60;;
74510;SDS011;62991;50.040;18.400;2023-05-07T08:49:22;13.35;;;4.85;;
74510;SDS011;62991;50.040;18.400;2023-05-07T08:52:23;8.15;;;3.85;;
74510;SDS011;62991;50.040;18.400;2023-05-07T08:55:23;7.53;;;3.35;;
74510;SDS011;62991;50.040;18.400;2023-05-07T08:58:24;7.20;;;2.85;;
74510;SDS011;62991;50.040;18.400;2023-05-07T09:01:25;8.23;;;3.70;;
74510;SDS011;62991;50.040;18.400;2023-05-07T09:04:26;4.97;;;2.58;;
74510;SDS011;62991;50.040;18.400;2023-05-07T09:07:27;4.50;;;2.38;;
74510;SDS011;62991;50.040;18.400;2023-05-07T09:10:31;5.20;;;2.03;;
74510;SDS011;62991;50.040;18.400;2023-05-07T09:13:33;3.58;;;2.05;;
74510;SDS011;62991;50.040;18.400;2023-05-07T09:16:34;4.18;;;1.80;;
74510;SDS011;62991;50.040;18.400;2023-05-07T09:19:35;5.53;;;2.70;;
74510;SDS011;62991;50.040;18.400;2023-05-07T09:22:36;5.75;;;2.60;;
74510;SDS011;62991;50.040;18.400;2023-05-07T09:25:37;4.18;;;2.17;;
74510;SDS011;62991;50.040;18.400;2023-05-07T09:28:39;4.57;;;2.50;;
74510;SDS011;62991;50.040;18.400;2023-05-07T09:31:43;5.55;;;2.60;;
74510;SDS011;62991;50.040;18.400;2023-05-07T09:34:44;5.20;;;2.67;;
74510;SDS011;62991;50.040;18.400;2023-05-07T09:37:44;5.63;;;3.00;;
74510;SDS011;62991;50.040;18.400;2023-05-07T09:40:45;5.53;;;2.72;;
74510;SDS011;62991;50.040;18.400;2023-05-07T09:43:47;9.02;;;4.68;;
74510;SDS011;62991;50.040;18.400;2023-05-07T09:46:54;6.38;;;3.17;;
74510;SDS011;62991;50.040;18.400;2023-05-07T09:49:56;4.90;;;2.90;;
74510;SDS011;62991;50.040;18.400;2023-05-07T09:52:59;6.95;;;2.55;;
74510;SDS011;62991;50.040;18.400;2023-05-07T09:56:00;8.10;;;3.80;;
74510;SDS011;62991;50.040;18.400;2023-05-07T09:59:02;4.63;;;2.78;;
74510;SDS011;62991;50.040;18.400;2023-05-07T10:02:03;13.40;;;3.97;;
74510;SDS011;62991;50.040;18.400;2023-05-07T10:05:05;7.53;;;4.07;;
74510;SDS011;62991;50.040;18.400;2023-05-07T10:08:06;5.95;;;3.65;;
74510;SDS011;62991;50.040;18.400;2023-05-07T10:11:08;8.23;;;3.92;;
74510;SDS011;62991;50.040;18.400;2023-05-07T10:14:10;5.70;;;2.83;;
74510;SDS011;62991;50.040;18.400;2023-05-07T10:17:11;9.55;;;3.42;;
74510;SDS011;62991;50.040;18.400;2023-05-07T10:20:13;5.78;;;3.22;;
74510;SDS011;62991;50.040;18.400;2023-05-07T10:23:14;5.85;;;2.92;;
74510;SDS011;62991;50.040;18.400;2023-05-07T10:26:23;4.50;;;2.60;;
74510;SDS011;62991;50.040;18.400;2023-05-07T10:29:29;6.13;;;3.55;;
74510;SDS011;62991;50.040;18.400;2023-05-07T10:35:42;7.28;;;3.88;;
74510;SDS011;62991;50.040;18.400;2023-05-07T10:38:45;7.25;;;3.83;;
74510;SDS011;62991;50.040;18.400;2023-05-07T10:41:46;6.22;;;3.33;;
74510;SDS011;62991;50.040;18.400;2023-05-07T10:44:47;8.43;;;4.18;;
74510;SDS011;62991;50.040;18.400;2023-05-07T10:51:19;5.32;;;3.33;;
74510;SDS011;62991;50.040;18.400;2023-05-07T10:54:21;7.78;;;4.10;;
74510;SDS011;62991;50.040;18.400;2023-05-07T10:57:32;7.20;;;4.03;;
74510;SDS011;62991;50.040;18.400;2023-05-07T11:03:37;6.95;;;3.80;;
74510;SDS011;62991;50.040;18.400;2023-05-07T11:07:24;7.00;;;3.60;;
74510;SDS011;62991;50.040;18.400;2023-05-07T11:11:08;6.88;;;3.47;;
74510;SDS011;62991;50.040;18.400;2023-05-07T11:13:50;5.57;;;2.88;;
74510;SDS011;62991;50.040;18.400;2023-05-07T11:16:52;7.10;;;3.92;;
74510;SDS011;62991;50.040;18.400;2023-05-07T11:20:02;5.65;;;2.75;;
74510;SDS011;62991;50.040;18.400;2023-05-07T11:23:06;7.97;;;3.60;;
74510;SDS011;62991;50.040;18.400;2023-05-07T11:26:07;5.90;;;3.55;;
74510;SDS011;62991;50.040;18.400;2023-05-07T11:29:13;7.45;;;3.63;;
74510;SDS011;62991;50.040;18.400;2023-05-07T11:32:27;6.25;;;3.60;;
74510;SDS011;62991;50.040;18.400;2023-05-07T11:35:29;6.70;;;3.60;;
74510;SDS011;62991;50.040;18.400;2023-05-07T11:38:30;9.52;;;4.38;;
74510;SDS011;62991;50.040;18.400;2023-05-07T11:41:35;7.03;;;3.67;;
74510;SDS011;62991;50.040;18.400;2023-05-07T11:44:43;9.93;;;4.40;;
74510;SDS011;62991;50.040;18.400;2023-05-07T11:47:45;8.77;;;4.30;;
74510;SDS011;62991;50.040;18.400;2023-05-07T11:54:23;6.60;;;3.90;;
74510;SDS011;62991;50.040;18.400;2023-05-07T11:57:24;7.93;;;3.50;;
74510;SDS011;62991;50.040;18.400;2023-05-07T12:00:25;11.10;;;4.30;;
74510;SDS011;62991;50.040;18.400;2023-05-07T12:03:26;6.97;;;3.53;;
74510;SDS011;62991;50.040;18.400;2023-05-07T12:06:26;8.57;;;3.33;;
74510;SDS011;62991;50.040;18.400;2023-05-07T12:09:27;6.78;;;2.95;;
74510;SDS011;62991;50.040;18.400;2023-05-07T12:12:28;7.25;;;3.60;;
74510;SDS011;62991;50.040;18.400;2023-05-07T12:15:29;6.28;;;3.63;;
74510;SDS011;62991;50.040;18.400;2023-05-07T12:18:30;7.40;;;3.85;;
74510;SDS011;62991;50.040;18.400;2023-05-07T12:21:31;7.45;;;4.45;;
74510;SDS011;62991;50.040;18.400;2023-05-07T12:28:02;8.63;;;3.72;;
74510;SDS011;62991;50.040;18.400;2023-05-07T12:31:05;7.43;;;3.60;;
74510;SDS011;62991;50.040;18.400;2023-05-07T12:34:06;8.15;;;3.80;;
74510;SDS011;62991;50.040;18.400;2023-05-07T12:37:07;9.23;;;4.00;;
74510;SDS011;62991;50.040;18.400;2023-05-07T12:40:08;7.97;;;3.80;;
74510;SDS011;62991;50.040;18.400;2023-05-07T12:43:27;7.53;;;3.53;;
74510;SDS011;62991;50.040;18.400;2023-05-07T12:46:28;10.05;;;4.45;;
74510;SDS011;62991;50.040;18.400;2023-05-07T12:49:29;6.82;;;4.13;;
74510;SDS011;62991;50.040;18.400;2023-05-07T12:52:30;7.60;;;4.55;;
74510;SDS011;62991;50.040;18.400;2023-05-07T12:55:31;9.00;;;4.78;;
74510;SDS011;62991;50.040;18.400;2023-05-07T12:58:34;11.15;;;4.72;;
74510;SDS011;62991;50.040;18.400;2023-05-07T13:01:36;7.22;;;4.57;;
74510;SDS011;62991;50.040;18.400;2023-05-07T13:04:36;6.32;;;3.05;;
74510;SDS011;62991;50.040;18.400;2023-05-07T13:07:37;7.95;;;4.53;;
74510;SDS011;62991;50.040;18.400;2023-05-07T13:10:38;11.48;;;4.93;;
74510;SDS011;62991;50.040;18.400;2023-05-07T13:13:39;12.02;;;4.00;;
74510;SDS011;62991;50.040;18.400;2023-05-07T13:16:40;6.97;;;4.28;;
74510;SDS011;62991;50.040;18.400;2023-05-07T13:19:41;10.48;;;5.30;;
74510;SDS011;62991;50.040;18.400;2023-05-07T13:22:42;10.90;;;5.35;;
74510;SDS011;62991;50.040;18.400;2023-05-07T13:25:43;8.63;;;4.50;;
74510;SDS011;62991;50.040;18.400;2023-05-07T13:28:43;10.25;;;5.10;;
74510;SDS011;62991;50.040;18.400;2023-05-07T13:31:44;10.20;;;5.18;;
74510;SDS011;62991;50.040;18.400;2023-05-07T13:34:45;9.38;;;4.97;;
74510;SDS011;62991;50.040;18.400;2023-05-07T13:37:45;10.25;;;4.57;;
74510;SDS011;62991;50.040;18.400;2023-05-07T13:40:46;8.98;;;4.28;;
74510;SDS011;62991;50.040;18.400;2023-05-07T13:43:47;7.15;;;3.67;;
74510;SDS011;62991;50.040;18.400;2023-05-07T13:46:47;6.18;;;3.88;;
74510;SDS011;62991;50.040;18.400;2023-05-07T13:49:48;7.75;;;4.65;;
74510;SDS011;62991;50.040;18.400;2023-05-07T13:52:51;9.45;;;4.55;;
74510;SDS011;62991;50.040;18.400;2023-05-07T13:55:52;10.63;;;5.22;;
74510;SDS011;62991;50.040;18.400;2023-05-07T13:58:53;8.77;;;4.90;;
74510;SDS011;62991;50.040;18.400;2023-05-07T14:01:54;9.50;;;4.35;;
74510;SDS011;62991;50.040;18.400;2023-05-07T14:04:55;12.05;;;4.60;;
74510;SDS011;62991;50.040;18.400;2023-05-07T14:07:56;8.00;;;3.95;;
74510;SDS011;62991;50.040;18.400;2023-05-07T14:10:57;8.95;;;4.88;;
74510;SDS011;62991;50.040;18.400;2023-05-07T14:13:58;11.88;;;5.18;;
74510;SDS011;62991;50.040;18.400;2023-05-07T14:16:59;9.63;;;4.53;;
74510;SDS011;62991;50.040;18.400;2023-05-07T14:20:00;10.05;;;4.88;;
74510;SDS011;62991;50.040;18.400;2023-05-07T14:23:00;13.25;;;5.75;;
74510;SDS011;62991;50.040;18.400;2023-05-07T14:26:01;10.48;;;5.10;;
74510;SDS011;62991;50.040;18.400;2023-05-07T14:29:02;10.77;;;4.70;;
74510;SDS011;62991;50.040;18.400;2023-05-07T14:32:03;10.35;;;5.30;;
74510;SDS011;62991;50.040;18.400;2023-05-07T14:35:04;7.85;;;3.63;;
74510;SDS011;62991;50.040;18.400;2023-05-07T14:38:05;10.55;;;5.35;;
74510;SDS011;62991;50.040;18.400;2023-05-07T14:41:05;9.48;;;5.22;;
74510;SDS011;62991;50.040;18.400;2023-05-07T14:44:06;18.38;;;7.13;;
74510;SDS011;62991;50.040;18.400;2023-05-07T14:47:07;15.70;;;7.68;;
74510;SDS011;62991;50.040;18.400;2023-05-07T14:50:08;15.35;;;6.38;;
74510;SDS011;62991;50.040;18.400;2023-05-07T14:53:08;15.07;;;6.63;;
74510;SDS011;62991;50.040;18.400;2023-05-07T14:56:09;10.00;;;5.05;;
74510;SDS011;62991;50.040;18.400;2023-05-07T14:59:10;9.70;;;4.55;;
74510;SDS011;62991;50.040;18.400;2023-05-07T15:02:11;7.65;;;4.15;;
74510;SDS011;62991;50.040;18.400;2023-05-07T15:05:12;8.90;;;3.88;;
74510;SDS011;62991;50.040;18.400;2023-05-07T15:08:14;8.82;;;4.68;;
74510;SDS011;62991;50.040;18.400;2023-05-07T15:11:15;8.27;;;4.03;;
74510;SDS011;62991;50.040;18.400;2023-05-07T15:14:16;10.75;;;5.00;;
74510;SDS011;62991;50.040;18.400;2023-05-07T15:17:17;7.38;;;4.13;;
74510;SDS011;62991;50.040;18.400;2023-05-07T15:20:18;6.68;;;3.95;;
74510;SDS011;62991;50.040;18.400;2023-05-07T15:23:19;9.63;;;4.80;;
74510;SDS011;62991;50.040;18.400;2023-05-07T15:26:20;7.88;;;3.90;;
74510;SDS011;62991;50.040;18.400;2023-05-07T15:29:21;8.50;;;4.18;;
74510;SDS011;62991;50.040;18.400;2023-05-07T15:32:21;7.05;;;4.22;;
74510;SDS011;62991;50.040;18.400;2023-05-07T15:35:22;12.35;;;5.30;;
74510;SDS011;62991;50.040;18.400;2023-05-07T15:38:23;11.32;;;5.70;;
74510;SDS011;62991;50.040;18.400;2023-05-07T15:41:24;9.35;;;4.82;;
74510;SDS011;62991;50.040;18.400;2023-05-07T15:44:25;11.50;;;5.20;;
74510;SDS011;62991;50.040;18.400;2023-05-07T15:47:28;11.35;;;4.07;;
74510;SDS011;62991;50.040;18.400;2023-05-07T15:50:34;7.05;;;4.45;;
74510;SDS011;62991;50.040;18.400;2023-05-07T15:53:35;6.93;;;3.83;;
74510;SDS011;62991;50.040;18.400;2023-05-07T15:56:36;8.02;;;3.75;;
74510;SDS011;62991;50.040;18.400;2023-05-07T15:59:37;8.40;;;4.05;;
74510;SDS011;62991;50.040;18.400;2023-05-07T16:02:38;7.95;;;4.05;;
74510;SDS011;62991;50.040;18.400;2023-05-07T16:05:39;10.77;;;4.35;;
74510;SDS011;62991;50.040;18.400;2023-05-07T16:08:40;11.07;;;4.57;;
74510;SDS011;62991;50.040;18.400;2023-05-07T16:11:43;11.13;;;4.85;;
74510;SDS011;62991;50.040;18.400;2023-05-07T16:14:43;9.70;;;5.07;;
74510;SDS011;62991;50.040;18.400;2023-05-07T16:17:45;9.05;;;5.25;;
74510;SDS011;62991;50.040;18.400;2023-05-07T16:20:47;13.93;;;5.97;;
74510;SDS011;62991;50.040;18.400;2023-05-07T16:23:48;8.05;;;4.93;;
74510;SDS011;62991;50.040;18.400;2023-05-07T16:26:49;15.52;;;6.88;;
74510;SDS011;62991;50.040;18.400;2023-05-07T16:29:50;12.70;;;5.90;;
74510;SDS011;62991;50.040;18.400;2023-05-07T16:32:51;8.75;;;4.68;;
74510;SDS011;62991;50.040;18.400;2023-05-07T16:35:52;8.68;;;4.00;;
74510;SDS011;62991;50.040;18.400;2023-05-07T16:38:52;17.52;;;8.38;;
74510;SDS011;62991;50.040;18.400;2023-05-07T16:41:53;14.82;;;5.82;;
74510;SDS011;62991;50.040;18.400;2023-05-07T16:44:54;9.32;;;4.30;;
74510;SDS011;62991;50.040;18.400;2023-05-07T16:47:55;8.82;;;4.38;;
74510;SDS011;62991;50.040;18.400;2023-05-07T16:50:57;9.90;;;4.70;;
74510;SDS011;62991;50.040;18.400;2023-05-07T16:53:58;9.68;;;4.72;;
74510;SDS011;62991;50.040;18.400;2023-05-07T16:56:59;9.45;;;4.38;;
74510;SDS011;62991;50.040;18.400;2023-05-07T17:00:00;8.38;;;4.82;;
74510;SDS011;62991;50.040;18.400;2023-05-07T17:03:01;10.00;;;4.78;;
74510;SDS011;62991;50.040;18.400;2023-05-07T17:06:02;9.68;;;4.35;;
74510;SDS011;62991;50.040;18.400;2023-05-07T17:09:03;9.77;;;4.70;;
74510;SDS011;62991;50.040;18.400;2023-05-07T17:12:04;9.43;;;4.70;;
74510;SDS011;62991;50.040;18.400;2023-05-07T17:15:05;12.23;;;4.78;;
74510;SDS011;62991;50.040;18.400;2023-05-07T17:18:06;9.20;;;5.05;;
74510;SDS011;62991;50.040;18.400;2023-05-07T17:21:07;12.93;;;5.10;;
74510;SDS011;62991;50.040;18.400;2023-05-07T17:24:07;9.48;;;4.97;;
74510;SDS011;62991;50.040;18.400;2023-05-07T17:27:10;10.98;;;5.72;;
74510;SDS011;62991;50.040;18.400;2023-05-07T17:30:13;10.95;;;5.05;;
74510;SDS011;62991;50.040;18.400;2023-05-07T17:33:14;9.05;;;4.90;;
74510;SDS011;62991;50.040;18.400;2023-05-07T17:36:16;10.23;;;5.45;;
74510;SDS011;62991;50.040;18.400;2023-05-07T17:39:17;9.23;;;5.47;;
74510;SDS011;62991;50.040;18.400;2023-05-07T17:42:18;8.98;;;4.85;;
74510;SDS011;62991;50.040;18.400;2023-05-07T17:45:19;8.20;;;4.10;;
74510;SDS011;62991;50.040;18.400;2023-05-07T17:48:20;9.23;;;4.18;;
74510;SDS011;62991;50.040;18.400;2023-05-07T17:51:20;10.23;;;4.93;;
74510;SDS011;62991;50.040;18.400;2023-05-07T17:54:21;9.95;;;4.22;;
74510;SDS011;62991;50.040;18.400;2023-05-07T17:57:25;11.02;;;4.55;;
74510;SDS011;62991;50.040;18.400;2023-05-07T18:00:26;8.30;;;4.32;;
74510;SDS011;62991;50.040;18.400;2023-05-07T18:03:27;9.45;;;4.97;;
74510;SDS011;62991;50.040;18.400;2023-05-07T18:06:30;10.55;;;4.80;;
74510;SDS011;62991;50.040;18.400;2023-05-07T18:09:31;9.65;;;4.97;;